Time;durP1;ratioP1;P1;durP2;ratioP2;P2;SDS_P1;SDS_P2;PMS_P1;PMS_P2;Temp;Humidity;BMP_temperature;BMP_pressure;BME280_temperature;BME280_humidity;BME280_pressure;Samples;Min_cycle;Max_cycle;Signal;HPM_P1;HPM_P2
2021/08/10 00:01:02;;;;;;;7.45;3.42;;;13.00;99.90;;;;;;4987439;28;20069;-73
2021/08/10 00:03:29;;;;;;;6.18;3.38;;;12.90;99.90;;;;;;4986939;28;20491;-73
2021/08/10 00:05:56;;;;;;;6.45;3.25;;;12.90;99.90;;;;;;4985836;28;20291;-73
2021/08/10 00:08:22;;;;;;;6.13;3.25;;;13.10;99.90;;;;;;4985597;28;20117;-72
2021/08/10 00:10:50;;;;;;;9.32;3.53;;;13.20;99.90;;;;;;4984822;28;20070;-73
2021/08/10 00:13:21;;;;;;;7.88;3.65;;;13.20;99.90;;;;;;4985674;28;20192;-73
2021/08/10 00:15:48;;;;;;;5.55;2.97;;;13.20;99.90;;;;;;4985374;28;20062;-73
2021/08/10 00:18:16;;;;;;;7.05;3.50;;;13.20;99.90;;;;;;4985488;28;20058;-73
2021/08/10 00:25:05;;;;;;;6.32;3.20;;;13.10;99.90;;;;;;4988631;28;20030;-73
2021/08/10 00:27:32;;;;;;;5.03;2.63;;;13.00;99.90;;;;;;4989444;28;20054;-73
2021/08/10 00:29:59;;;;;;;5.78;2.75;;;13.00;99.90;;;;;;4974413;28;20100;-73
2021/08/10 00:32:26;;;;;;;6.55;3.00;;;13.00;99.90;;;;;;4991025;28;20566;-73
2021/08/10 00:34:53;;;;;;;5.82;2.83;;;12.90;99.90;;;;;;4994352;28;20077;-72
2021/08/10 00:37:20;;;;;;;7.80;3.67;;;13.00;99.90;;;;;;4984735;28;20054;-74
2021/08/10 00:39:47;;;;;;;5.93;3.03;;;12.90;99.90;;;;;;4981604;28;20047;-73
2021/08/10 00:42:14;;;;;;;4.90;2.80;;;13.00;99.90;;;;;;4985544;28;20145;-74
2021/08/10 00:44:41;;;;;;;7.88;3.38;;;13.00;99.90;;;;;;4969663;28;20043;-72
2021/08/10 00:55:35;;;;;;;4.50;2.40;;;13.20;99.90;;;;;;4992088;28;20042;-72
2021/08/10 00:58:03;;;;;;;7.38;3.45;;;13.20;99.90;;;;;;4985551;28;20467;-73
2021/08/10 01:00:30;;;;;;;4.00;2.63;;;13.20;99.90;;;;;;4991993;28;20488;-73
2021/08/10 01:02:57;;;;;;;5.20;3.15;;;13.30;99.90;;;;;;4989818;28;20136;-73
2021/08/10 01:05:30;;;;;;;6.88;2.72;;;13.30;99.90;;;;;;4983034;28;20074;-73
2021/08/10 01:08:17;;;;;;;7.18;3.40;;;13.30;99.90;;;;;;4971274;28;20054;-73
2021/08/10 01:10:54;;;;;;;6.55;3.35;;;13.20;99.90;;;;;;4967808;28;20133;-72
2021/08/10 01:14:02;;;;;;;8.15;3.30;;;13.10;99.90;;;;;;4984437;28;20046;-72
2021/08/10 01:16:37;;;;;;;5.20;3.47;;;13.00;99.90;;;;;;4966434;28;20054;-72
2021/08/10 01:19:38;;;;;;;8.00;3.83;;;13.00;99.90;;;;;;4948694;28;20078;-72
2021/08/10 01:22:07;;;;;;;10.18;3.70;;;13.00;99.90;;;;;;4980571;28;20527;-73
2021/08/10 01:25:11;;;;;;;5.75;3.70;;;13.00;99.90;;;;;;4966100;28;20501;-73
2021/08/10 01:28:09;;;;;;;6.60;3.65;;;13.20;99.90;;;;;;4997793;28;20294;-72
2021/08/10 01:31:06;;;;;;;6.68;3.13;;;13.30;99.90;;;;;;4978907;28;20152;-71
2021/08/10 01:33:45;;;;;;;6.63;2.95;;;13.30;99.90;;;;;;4980717;28;20140;-72
2021/08/10 01:36:15;;;;;;;5.72;3.00;;;13.40;99.90;;;;;;4985051;28;20046;-72
2021/08/10 01:38:48;;;;;;;5.43;3.05;;;13.50;99.90;;;;;;5003414;28;20613;-72
2021/08/10 01:41:17;;;;;;;5.95;3.22;;;13.30;99.90;;;;;;5001901;28;20145;-73
2021/08/10 01:43:45;;;;;;;6.07;2.90;;;13.40;99.90;;;;;;4991045;28;20112;-73
2021/08/10 01:46:13;;;;;;;5.90;3.17;;;13.50;99.90;;;;;;4983308;28;20042;-74
2021/08/10 01:48:41;;;;;;;5.80;3.00;;;13.40;99.90;;;;;;4985155;28;20050;-72
2021/08/10 01:51:10;;;;;;;5.55;2.92;;;13.50;99.90;;;;;;4983292;28;20427;-72
2021/08/10 01:53:39;;;;;;;5.65;2.92;;;13.50;99.90;;;;;;4967826;28;20406;-72
2021/08/10 01:56:08;;;;;;;6.10;2.90;;;13.50;99.90;;;;;;4982500;28;20073;-73
2021/08/10 01:58:42;;;;;;;5.77;3.17;;;13.50;99.90;;;;;;4984894;28;20584;-73
2021/08/10 02:01:10;;;;;;;5.45;2.85;;;13.60;99.90;;;;;;4975283;28;20046;-72
2021/08/10 02:03:39;;;;;;;4.60;2.67;;;13.60;99.90;;;;;;4979011;28;20058;-73
2021/08/10 02:06:15;;;;;;;5.25;2.33;;;13.60;99.90;;;;;;4994821;28;20068;-73
2021/08/10 02:08:46;;;;;;;7.50;2.58;;;13.80;99.90;;;;;;5002905;28;20072;-73
2021/08/10 02:11:14;;;;;;;6.38;3.20;;;13.80;99.90;;;;;;4985805;28;20092;-74
2021/08/10 02:13:42;;;;;;;7.32;3.30;;;13.70;99.90;;;;;;4986599;28;20049;-73
2021/08/10 02:16:11;;;;;;;5.57;3.03;;;13.60;99.90;;;;;;4966396;28;20050;-72
2021/08/10 02:18:41;;;;;;;6.68;3.42;;;13.50;99.90;;;;;;4967279;28;20050;-72
2021/08/10 02:21:25;;;;;;;4.60;2.95;;;13.50;99.90;;;;;;4983138;28;20053;-74
2021/08/10 02:24:00;;;;;;;5.78;3.50;;;13.50;99.90;;;;;;4951024;28;20137;-73
2021/08/10 02:26:30;;;;;;;6.00;3.45;;;13.60;99.90;;;;;;4981175;28;20088;-74
2021/08/10 02:29:00;;;;;;;4.47;2.70;;;13.50;99.90;;;;;;4967100;28;20057;-74
2021/08/10 02:31:29;;;;;;;7.32;2.80;;;13.40;99.90;;;;;;4991042;28;20235;-73
2021/08/10 02:33:57;;;;;;;5.57;3.30;;;13.60;99.90;;;;;;4993440;28;20085;-73
2021/08/10 02:36:29;;;;;;;5.32;2.67;;;13.60;99.90;;;;;;4982563;28;20463;-71
2021/08/10 02:39:06;;;;;;;5.20;2.38;;;13.60;99.90;;;;;;4969925;28;20318;-72
2021/08/10 02:41:37;;;;;;;4.50;2.70;;;13.60;99.90;;;;;;4987179;28;20520;-73
2021/08/10 02:44:08;;;;;;;5.78;3.20;;;13.60;99.90;;;;;;4982719;28;20735;-73
2021/08/10 02:46:36;;;;;;;5.47;2.85;;;13.60;99.90;;;;;;4966514;28;20074;-73
2021/08/10 02:49:06;;;;;;;8.80;3.53;;;13.60;99.90;;;;;;4984289;28;20473;-72
2021/08/10 02:51:33;;;;;;;6.10;2.90;;;13.60;99.90;;;;;;4982946;28;20108;-72
2021/08/10 02:54:00;;;;;;;5.95;2.63;;;13.60;99.90;;;;;;4966748;28;20042;-73
2021/08/10 02:56:37;;;;;;;4.95;2.95;;;13.70;99.90;;;;;;4966124;28;20085;-71
2021/08/10 02:59:10;;;;;;;3.70;2.63;;;13.70;99.90;;;;;;4983281;28;20054;-73
2021/08/10 03:01:52;;;;;;;8.57;2.85;;;13.70;99.90;;;;;;4988198;28;20053;-73
2021/08/10 03:04:23;;;;;;;6.82;3.20;;;13.80;99.90;;;;;;4966741;28;20211;-71
2021/08/10 03:06:55;;;;;;;6.35;2.38;;;13.80;99.90;;;;;;4982228;28;20129;-73
2021/08/10 03:09:22;;;;;;;6.78;3.05;;;13.80;99.90;;;;;;4980490;28;20050;-71
2021/08/10 03:11:51;;;;;;;5.78;2.78;;;13.70;99.90;;;;;;4982812;28;20058;-73
2021/08/10 03:14:22;;;;;;;5.97;3.10;;;13.60;99.90;;;;;;4949843;28;20081;-73
2021/08/10 03:16:52;;;;;;;4.03;2.55;;;13.70;99.90;;;;;;4998895;28;20153;-73
2021/08/10 03:19:22;;;;;;;5.78;3.10;;;13.50;99.90;;;;;;4985637;28;20050;-73
2021/08/10 03:21:50;;;;;;;5.50;2.70;;;13.60;99.90;;;;;;4985261;28;20077;-73
2021/08/10 03:24:18;;;;;;;4.35;2.58;;;13.40;99.90;;;;;;4985374;28;20064;-72
2021/08/10 03:26:46;;;;;;;7.72;3.10;;;13.50;99.90;;;;;;4997184;28;20050;-73
2021/08/10 03:29:14;;;;;;;6.50;3.47;;;13.40;99.90;;;;;;4982848;28;20055;-73
2021/08/10 03:31:42;;;;;;;5.32;2.83;;;13.40;99.90;;;;;;4974581;28;20056;-73
2021/08/10 03:34:12;;;;;;;8.45;2.78;;;13.40;99.90;;;;;;4975548;28;20439;-73
2021/08/10 03:36:40;;;;;;;4.13;3.20;;;13.30;99.90;;;;;;4981698;28;20065;-73
2021/08/10 03:39:08;;;;;;;6.47;3.30;;;13.40;99.90;;;;;;4988586;28;20484;-73
2021/08/10 03:41:36;;;;;;;5.35;2.95;;;13.30;99.90;;;;;;4997569;28;20062;-73
2021/08/10 03:44:03;;;;;;;6.85;3.83;;;13.20;99.90;;;;;;4985844;28;20050;-72
2021/08/10 03:46:31;;;;;;;3.88;2.95;;;13.10;99.90;;;;;;4986182;28;20124;-73
2021/08/10 03:49:00;;;;;;;7.32;3.47;;;13.10;99.90;;;;;;4972053;28;20449;-74
2021/08/10 03:51:29;;;;;;;6.55;3.50;;;13.20;99.90;;;;;;4987908;28;20078;-73
2021/08/10 03:53:57;;;;;;;6.55;3.20;;;13.20;99.90;;;;;;4973133;28;20486;-72
2021/08/10 03:56:25;;;;;;;7.43;3.17;;;13.10;99.90;;;;;;4988573;28;20054;-72
2021/08/10 03:58:55;;;;;;;7.03;3.40;;;13.00;99.90;;;;;;4992889;28;20120;-72
2021/08/10 04:01:27;;;;;;;8.10;3.78;;;13.00;99.90;;;;;;4995877;28;20181;-77
2021/08/10 04:03:56;;;;;;;6.32;3.60;;;13.00;99.90;;;;;;4987018;28;20529;-76
2021/08/10 04:06:25;;;;;;;5.25;3.40;;;12.90;99.90;;;;;;4985831;28;20141;-77
2021/08/10 04:08:52;;;;;;;6.82;3.58;;;12.80;99.90;;;;;;4987931;28;20414;-75
2021/08/10 04:11:20;;;;;;;9.77;3.38;;;12.80;99.90;;;;;;4970610;28;20502;-77
2021/08/10 04:13:50;;;;;;;6.82;3.40;;;12.90;99.90;;;;;;4985060;28;20062;-78
2021/08/10 04:16:19;;;;;;;7.22;3.95;;;12.80;99.90;;;;;;4984430;28;20128;-77
2021/08/10 04:18:48;;;;;;;6.70;3.75;;;13.00;99.90;;;;;;4985101;28;20185;-76
2021/08/10 04:21:19;;;;;;;8.20;4.05;;;12.90;99.90;;;;;;4984669;28;20462;-76
2021/08/10 04:23:47;;;;;;;6.80;4.00;;;12.90;99.90;;;;;;4986625;28;20050;-76
2021/08/10 04:26:14;;;;;;;8.00;4.03;;;13.00;99.90;;;;;;4984511;28;20101;-76
2021/08/10 04:28:41;;;;;;;6.20;4.07;;;13.00;99.90;;;;;;4984553;28;20462;-76
2021/08/10 04:31:08;;;;;;;5.88;3.60;;;13.10;99.90;;;;;;4975249;28;20191;-76
2021/08/10 04:33:35;;;;;;;8.20;4.25;;;13.00;99.90;;;;;;4984354;28;20050;-77
2021/08/10 04:36:04;;;;;;;9.60;4.43;;;13.10;99.90;;;;;;4983658;28;20281;-76
2021/08/10 04:38:31;;;;;;;9.45;4.35;;;13.10;99.90;;;;;;4986118;28;20057;-75
2021/08/10 04:40:58;;;;;;;6.10;3.28;;;13.20;99.90;;;;;;4968126;28;20420;-76
2021/08/10 04:43:39;;;;;;;5.30;3.58;;;13.20;99.90;;;;;;4967786;28;20117;-77
2021/08/10 04:46:05;;;;;;;8.45;3.90;;;13.10;99.90;;;;;;4984202;28;20046;-76
2021/08/10 04:48:32;;;;;;;5.82;3.25;;;13.20;99.90;;;;;;4984425;28;20141;-77
2021/08/10 04:50:59;;;;;;;8.07;3.13;;;13.20;99.90;;;;;;4986025;28;20085;-76
2021/08/10 04:53:26;;;;;;;5.63;3.97;;;13.00;99.90;;;;;;4994104;28;20129;-76
2021/08/10 04:55:53;;;;;;;6.45;4.43;;;12.80;99.90;;;;;;4967264;28;20058;-76
2021/08/10 04:58:20;;;;;;;8.40;3.53;;;12.90;99.90;;;;;;4964641;28;20054;-76
2021/08/10 05:00:50;;;;;;;10.35;3.95;;;13.20;99.90;;;;;;4986763;28;20329;-76
2021/08/10 05:03:17;;;;;;;8.63;4.00;;;13.10;99.90;;;;;;4986922;28;20054;-77
2021/08/10 05:05:45;;;;;;;8.55;4.28;;;13.10;99.90;;;;;;4966466;28;20157;-76
2021/08/10 05:08:11;;;;;;;9.90;4.25;;;13.20;99.90;;;;;;4966492;28;20165;-76
2021/08/10 05:10:41;;;;;;;9.68;3.67;;;13.20;99.90;;;;;;4981809;28;20092;-76
2021/08/10 05:13:13;;;;;;;6.15;3.67;;;13.20;99.90;;;;;;4984193;28;20153;-76
2021/08/10 05:15:40;;;;;;;6.72;3.40;;;13.20;99.90;;;;;;4983079;28;20493;-76
2021/08/10 05:18:07;;;;;;;3.65;3.22;;;13.20;99.90;;;;;;4986163;28;20061;-76
2021/08/10 05:20:34;;;;;;;6.40;3.33;;;13.20;99.90;;;;;;4974655;28;20049;-77
2021/08/10 05:23:01;;;;;;;7.30;3.58;;;13.20;99.90;;;;;;5003469;28;20403;-76
2021/08/10 05:25:28;;;;;;;9.00;3.50;;;13.20;99.90;;;;;;5002277;28;20481;-77
2021/08/10 05:27:55;;;;;;;10.73;3.70;;;13.30;99.90;;;;;;4993572;28;20624;-77
2021/08/10 05:30:21;;;;;;;5.20;3.03;;;13.40;99.90;;;;;;4984007;28;20054;-77
2021/08/10 05:32:48;;;;;;;6.30;3.33;;;13.20;99.90;;;;;;4989259;28;20505;-76
2021/08/10 05:35:31;;;;;;;6.97;3.30;;;13.30;99.90;;;;;;4980529;28;20137;-77
2021/08/10 05:37:58;;;;;;;7.68;3.92;;;13.30;99.90;;;;;;4967106;28;20522;-76
2021/08/10 05:40:25;;;;;;;6.80;3.65;;;13.40;99.90;;;;;;4987765;28;20514;-77
2021/08/10 05:42:55;;;;;;;5.90;3.70;;;13.40;99.90;;;;;;4982681;28;20117;-76
2021/08/10 05:45:22;;;;;;;6.05;3.80;;;13.50;99.90;;;;;;4982680;28;20085;-76
2021/08/10 05:47:49;;;;;;;7.30;3.72;;;13.50;99.90;;;;;;4981654;28;20550;-76
2021/08/10 05:50:19;;;;;;;8.52;3.75;;;13.50;99.90;;;;;;4981849;28;20093;-76
2021/08/10 05:52:45;;;;;;;6.55;3.30;;;13.40;99.90;;;;;;4983138;28;20050;-76
2021/08/10 05:55:13;;;;;;;10.80;4.22;;;13.40;99.90;;;;;;4977780;28;20059;-77
2021/08/10 05:57:43;;;;;;;10.68;4.30;;;13.50;99.90;;;;;;4979878;28;20392;-76
2021/08/10 06:00:10;;;;;;;8.27;4.35;;;13.70;99.90;;;;;;4970879;28;20096;-77
2021/08/10 06:02:46;;;;;;;12.20;4.50;;;13.70;99.90;;;;;;4996423;28;20042;-75
2021/08/10 06:05:17;;;;;;;7.53;4.13;;;13.80;99.90;;;;;;5000208;28;20077;-75
2021/08/10 06:07:44;;;;;;;10.50;4.43;;;13.80;99.90;;;;;;4967182;28;20053;-76
2021/08/10 06:10:11;;;;;;;10.00;5.13;;;13.80;99.90;;;;;;4966456;28;20046;-77
2021/08/10 06:12:38;;;;;;;8.63;4.68;;;13.80;99.90;;;;;;4983396;28;20088;-76
2021/08/10 06:15:10;;;;;;;6.97;4.93;;;13.80;99.90;;;;;;4984288;28;20084;-76
2021/08/10 06:17:38;;;;;;;9.98;5.53;;;13.80;99.90;;;;;;4983307;28;20422;-76
2021/08/10 06:20:10;;;;;;;11.60;5.75;;;13.80;99.90;;;;;;4983324;28;20076;-77
2021/08/10 06:22:38;;;;;;;11.75;6.18;;;13.80;99.90;;;;;;4983413;28;20414;-76
2021/08/10 06:25:06;;;;;;;14.02;6.22;;;13.90;99.90;;;;;;4982827;28;20308;-75
2021/08/10 06:27:33;;;;;;;8.82;5.15;;;14.00;99.90;;;;;;4997597;28;20411;-76
2021/08/10 06:30:00;;;;;;;8.93;4.93;;;14.10;99.90;;;;;;4990822;28;20411;-75
2021/08/10 06:32:27;;;;;;;8.52;5.03;;;14.20;99.90;;;;;;4987306;28;20050;-76
2021/08/10 06:34:55;;;;;;;9.07;6.03;;;14.30;99.90;;;;;;4982938;28;20050;-74
2021/08/10 06:37:27;;;;;;;12.07;6.22;;;14.30;99.90;;;;;;4976683;28;20053;-76
2021/08/10 06:39:54;;;;;;;8.05;5.43;;;14.40;99.90;;;;;;4975271;28;20089;-76
2021/08/10 06:42:22;;;;;;;37.17;10.35;;;14.50;99.90;;;;;;4983847;28;20458;-76
2021/08/10 06:44:59;;;;;;;6.53;4.45;;;14.60;99.90;;;;;;4965638;28;20133;-76
2021/08/10 06:47:27;;;;;;;8.98;3.97;;;15.00;99.90;;;;;;4986577;28;20050;-76
2021/08/10 06:49:54;;;;;;;6.70;5.13;;;15.10;99.90;;;;;;4967649;28;20065;-77
2021/08/10 06:52:22;;;;;;;10.95;5.03;;;15.30;99.90;;;;;;4966446;28;20050;-76
2021/08/10 06:54:49;;;;;;;7.85;4.65;;;15.60;99.90;;;;;;4982980;28;20062;-76
2021/08/10 06:57:16;;;;;;;8.18;5.05;;;15.80;99.90;;;;;;4981426;28;20050;-76
2021/08/10 06:59:43;;;;;;;10.07;3.78;;;16.10;99.90;;;;;;4986538;28;20096;-76
2021/08/10 07:02:12;;;;;;;7.88;4.15;;;16.30;99.90;;;;;;4993362;28;20141;-75
2021/08/10 07:04:39;;;;;;;8.43;3.90;;;16.60;99.90;;;;;;4985500;28;20038;-76
2021/08/10 07:07:06;;;;;;;8.40;4.07;;;16.90;99.90;;;;;;4985152;28;20461;-76
2021/08/10 07:09:37;;;;;;;5.22;4.20;;;17.00;99.90;;;;;;4978813;28;20077;-77
2021/08/10 07:12:04;;;;;;;8.20;4.55;;;16.80;99.90;;;;;;4982593;28;20133;-76
2021/08/10 07:14:35;;;;;;;7.25;4.40;;;17.10;99.90;;;;;;4983146;28;20046;-76
2021/08/10 07:17:04;;;;;;;6.20;4.38;;;17.10;99.90;;;;;;4988538;28;20500;-76
2021/08/10 07:19:32;;;;;;;6.43;4.00;;;17.00;99.90;;;;;;4989242;28;20058;-76
2021/08/10 07:22:00;;;;;;;6.75;4.15;;;17.10;99.90;;;;;;4969528;28;20093;-75
2021/08/10 07:24:31;;;;;;;9.02;4.68;;;17.10;99.90;;;;;;4954477;28;20050;-75
2021/08/10 07:26:58;;;;;;;8.75;5.25;;;17.40;99.90;;;;;;4986711;28;20133;-75
2021/08/10 07:29:30;;;;;;;9.20;5.07;;;17.70;99.90;;;;;;4973211;28;20045;-77
2021/08/10 07:32:00;;;;;;;6.20;4.50;;;17.60;99.90;;;;;;4992151;28;20058;-76
2021/08/10 07:34:28;;;;;;;6.82;4.22;;;18.00;99.90;;;;;;4970015;28;20080;-75
2021/08/10 07:37:14;;;;;;;10.35;4.82;;;18.20;99.90;;;;;;4969209;28;20049;-75
2021/08/10 07:39:40;;;;;;;6.57;4.72;;;18.40;99.90;;;;;;4964782;28;20050;-75
2021/08/10 07:42:14;;;;;;;6.82;4.13;;;18.10;99.90;;;;;;4962172;28;20046;-75
2021/08/10 07:44:41;;;;;;;7.05;4.88;;;17.90;99.90;;;;;;4985982;28;20058;-75
2021/08/10 07:47:08;;;;;;;8.10;4.00;;;17.80;99.90;;;;;;4973961;28;20081;-76
2021/08/10 07:49:35;;;;;;;5.70;3.85;;;17.70;99.90;;;;;;4973508;28;20042;-75
2021/08/10 07:52:03;;;;;;;7.63;4.90;;;17.80;99.90;;;;;;4988090;28;20060;-75
2021/08/10 07:54:30;;;;;;;7.93;4.40;;;17.80;99.90;;;;;;5005776;28;20149;-75
2021/08/10 07:56:59;;;;;;;5.95;4.72;;;18.00;99.90;;;;;;4988552;28;20042;-75
2021/08/10 07:59:26;;;;;;;8.57;4.35;;;18.20;99.90;;;;;;4989074;28;20046;-74
2021/08/10 08:01:55;;;;;;;8.27;4.50;;;18.30;99.90;;;;;;4978913;28;20050;-75
2021/08/10 08:04:23;;;;;;;8.35;4.43;;;18.60;99.90;;;;;;4988010;28;20053;-74
2021/08/10 08:06:51;;;;;;;6.22;4.85;;;18.70;99.90;;;;;;5004048;28;20184;-75
2021/08/10 08:09:19;;;;;;;5.80;4.68;;;18.80;99.90;;;;;;5000801;28;20141;-76
2021/08/10 08:11:46;;;;;;;6.43;4.53;;;18.90;99.90;;;;;;4968792;28;20503;-75
2021/08/10 08:14:16;;;;;;;6.63;5.07;;;19.10;99.90;;;;;;4985286;28;20285;-75
2021/08/10 08:16:44;;;;;;;7.25;5.75;;;19.40;99.90;;;;;;4984450;28;20077;-75
2021/08/10 08:19:11;;;;;;;7.57;5.95;;;19.50;99.90;;;;;;4985699;28;20066;-76
2021/08/10 08:21:38;;;;;;;7.57;5.65;;;19.60;99.90;;;;;;4984954;28;20162;-75
2021/08/10 08:24:05;;;;;;;5.88;5.28;;;19.70;99.90;;;;;;4985951;28;20499;-76
2021/08/10 08:26:33;;;;;;;7.07;5.20;;;19.80;99.90;;;;;;4952641;28;20539;-75
2021/08/10 08:29:01;;;;;;;6.10;5.50;;;20.10;99.90;;;;;;4976258;28;20168;-75
2021/08/10 08:31:28;;;;;;;6.90;6.20;;;20.50;99.90;;;;;;4977665;28;20513;-76
2021/08/10 08:33:55;;;;;;;7.25;6.55;;;20.50;99.90;;;;;;4979310;28;20565;-75
2021/08/10 08:36:22;;;;;;;7.22;6.63;;;20.60;99.90;;;;;;4967753;28;20042;-75
2021/08/10 08:38:49;;;;;;;10.45;6.95;;;20.40;99.90;;;;;;4990686;28;20038;-76
2021/08/10 08:41:19;;;;;;;7.45;6.80;;;20.60;99.90;;;;;;4981886;28;20587;-76
2021/08/10 08:43:46;;;;;;;7.68;6.82;;;20.70;99.90;;;;;;4984297;28;20057;-77
2021/08/10 08:46:15;;;;;;;7.88;7.28;;;21.00;99.90;;;;;;4984953;28;20052;-76
2021/08/10 08:48:45;;;;;;;8.35;7.65;;;21.10;99.90;;;;;;4969710;28;20058;-76
2021/08/10 08:51:24;;;;;;;8.48;7.68;;;21.00;99.90;;;;;;4968294;28;20093;-75
2021/08/10 08:53:55;;;;;;;8.70;7.75;;;20.90;99.90;;;;;;4984914;28;20065;-76
2021/08/10 08:56:32;;;;;;;8.45;7.65;;;21.00;99.90;;;;;;4968881;28;20452;-75
2021/08/10 08:59:03;;;;;;;8.85;8.05;;;20.80;99.90;;;;;;4984528;28;20057;-75
2021/08/10 09:01:36;;;;;;;8.80;7.90;;;20.60;99.90;;;;;;4982772;28;20043;-76
2021/08/10 09:04:07;;;;;;;9.27;8.48;;;20.70;99.90;;;;;;4968689;28;20286;-75
2021/08/10 09:06:37;;;;;;;8.20;7.53;;;21.00;99.90;;;;;;4982786;28;20057;-76
2021/08/10 09:09:33;;;;;;;10.02;9.05;;;21.30;99.90;;;;;;4985018;28;20515;-76
2021/08/10 09:12:14;;;;;;;10.57;9.52;;;21.70;99.90;;;;;;4954403;28;20058;-76
2021/08/10 09:14:50;;;;;;;10.00;9.15;;;21.40;99.90;;;;;;4983682;28;20054;-76
2021/08/10 09:17:46;;;;;;;8.77;7.93;;;21.60;99.90;;;;;;4948885;28;20070;-75
2021/08/10 09:20:21;;;;;;;9.52;8.73;;;21.50;99.90;;;;;;4986728;28;20085;-76
2021/08/10 09:22:55;;;;;;;10.15;9.20;;;21.30;99.90;;;;;;4968271;28;20145;-76
2021/08/10 09:25:34;;;;;;;10.05;9.05;;;20.70;99.90;;;;;;4967929;28;20034;-76
2021/08/10 09:28:09;;;;;;;9.82;8.40;;;20.30;99.90;;;;;;4972593;28;20050;-76
2021/08/10 09:30:46;;;;;;;9.68;8.82;;;20.10;99.90;;;;;;5000635;28;20073;-77
2021/08/10 09:33:12;;;;;;;9.13;8.40;;;19.90;99.90;;;;;;4962774;28;20086;-76
2021/08/10 09:35:49;;;;;;;9.50;8.60;;;19.70;99.90;;;;;;4972414;28;20070;-76
2021/08/10 09:38:20;;;;;;;8.95;8.05;;;19.80;99.90;;;;;;4985964;28;20089;-76
2021/08/10 09:40:53;;;;;;;10.98;10.07;;;20.00;99.90;;;;;;4966877;28;20515;-76
2021/08/10 09:43:26;;;;;;;10.52;9.63;;;20.50;99.90;;;;;;4967212;28;20042;-77
2021/08/10 09:46:11;;;;;;;10.15;9.25;;;20.90;99.90;;;;;;4967615;28;20053;-76
2021/08/10 09:48:40;;;;;;;10.18;9.27;;;21.00;99.90;;;;;;4984608;28;20488;-76
2021/08/10 09:51:09;;;;;;;9.95;9.07;;;20.70;99.90;;;;;;4970858;28;20560;-76
2021/08/10 09:53:36;;;;;;;9.52;8.70;;;20.60;99.90;;;;;;4971235;28;20053;-75
2021/08/10 09:56:04;;;;;;;10.48;9.43;;;20.70;99.90;;;;;;5002770;28;20270;-76
2021/08/10 09:58:51;;;;;;;10.65;9.95;;;20.60;99.90;;;;;;5003295;28;20046;-76
2021/08/10 10:01:39;;;;;;;10.57;9.80;;;20.60;99.90;;;;;;4974325;28;20129;-76
2021/08/10 10:04:17;;;;;;;10.40;9.55;;;20.20;99.90;;;;;;5003395;28;20053;-74
2021/08/10 10:07:07;;;;;;;10.10;9.23;;;20.50;99.90;;;;;;5002797;28;20050;-75
2021/08/10 10:09:35;;;;;;;10.35;9.45;;;20.70;99.90;;;;;;5003679;28;20145;-75
2021/08/10 10:12:04;;;;;;;10.15;9.30;;;20.30;99.90;;;;;;4990150;28;20056;-75
2021/08/10 10:14:32;;;;;;;10.88;9.77;;;20.00;99.90;;;;;;4983233;28;20065;-76
2021/08/10 10:17:02;;;;;;;10.35;9.40;;;19.80;99.90;;;;;;4950162;28;20511;-75
2021/08/10 10:19:29;;;;;;;9.65;8.70;;;19.70;99.90;;;;;;4984624;28;20054;-75
2021/08/10 10:22:03;;;;;;;10.63;9.73;;;19.70;99.90;;;;;;4985653;28;20054;-75
2021/08/10 10:24:38;;;;;;;9.30;8.50;;;19.60;99.90;;;;;;5003039;28;20054;-74
2021/08/10 10:27:07;;;;;;;10.57;9.68;;;20.00;99.90;;;;;;4986166;28;20430;-75
2021/08/10 10:29:34;;;;;;;10.80;9.90;;;20.30;99.90;;;;;;4999522;28;20050;-75
2021/08/10 10:32:01;;;;;;;10.77;9.88;;;20.50;99.90;;;;;;4992843;28;20138;-75
2021/08/10 10:34:30;;;;;;;11.52;10.63;;;21.10;99.90;;;;;;4989993;28;20273;-75
2021/08/10 10:36:58;;;;;;;11.13;10.23;;;21.30;99.90;;;;;;4983170;28;20050;-74
2021/08/10 10:39:29;;;;;;;10.45;9.75;;;21.70;99.90;;;;;;4980912;28;20136;-75
2021/08/10 10:42:01;;;;;;;11.45;10.55;;;22.00;99.90;;;;;;4986921;28;20070;-74
2021/08/10 10:44:44;;;;;;;11.50;10.52;;;22.10;99.90;;;;;;4992668;28;20038;-73
2021/08/10 10:47:23;;;;;;;10.85;9.95;;;21.80;99.90;;;;;;4991892;28;20132;-75
2021/08/10 10:49:56;;;;;;;12.70;11.70;;;21.60;99.90;;;;;;4984382;28;20046;-77
2021/08/10 10:52:28;;;;;;;12.30;11.18;;;21.70;99.90;;;;;;4988180;28;20474;-74
2021/08/10 10:54:55;;;;;;;11.98;11.18;;;22.00;99.90;;;;;;5006263;28;20613;-75
2021/08/10 10:57:28;;;;;;;12.82;11.82;;;22.00;99.90;;;;;;5006647;28;20046;-75
2021/08/10 11:00:17;;;;;;;12.73;11.73;;;21.90;99.90;;;;;;5002968;28;20042;-74
2021/08/10 11:03:07;;;;;;;12.90;12.00;;;21.80;99.90;;;;;;4983241;28;20422;-75
2021/08/10 11:05:34;;;;;;;12.25;11.20;;;21.90;99.90;;;;;;4968795;28;20481;-75
2021/08/10 11:08:00;;;;;;;11.75;10.95;;;22.10;99.90;;;;;;4968793;28;20055;-75
2021/08/10 11:10:47;;;;;;;11.48;10.70;;;22.10;99.90;;;;;;4967901;28;20157;-74
2021/08/10 11:13:35;;;;;;;12.30;11.30;;;21.80;99.90;;;;;;4979262;28;20054;-76
2021/08/10 11:16:02;;;;;;;12.27;11.48;;;21.50;99.90;;;;;;4980452;28;20565;-75
2021/08/10 11:18:29;;;;;;;11.70;10.88;;;21.40;99.90;;;;;;4997190;28;20206;-75
2021/08/10 11:20:59;;;;;;;12.70;11.80;;;21.40;99.90;;;;;;4986425;28;20109;-74
2021/08/10 11:23:26;;;;;;;11.35;10.45;;;21.50;99.90;;;;;;4971155;28;20054;-74
2021/08/10 11:25:59;;;;;;;13.05;11.95;;;21.60;99.90;;;;;;4985948;28;20043;-75
2021/08/10 11:28:36;;;;;;;12.52;11.55;;;21.70;99.90;;;;;;4988342;28;20065;-75
2021/08/10 11:31:07;;;;;;;11.10;10.30;;;22.00;99.90;;;;;;4992527;28;20043;-75
2021/08/10 11:33:39;;;;;;;11.77;10.98;;;22.30;99.90;;;;;;4987777;28;20463;-75
2021/08/10 11:36:12;;;;;;;12.07;11.07;;;22.30;99.90;;;;;;4986378;28;20452;-75
2021/08/10 11:38:48;;;;;;;12.80;11.90;;;22.20;99.90;;;;;;4986557;28;20424;-75
2021/08/10 11:41:19;;;;;;;12.80;11.80;;;22.30;99.90;;;;;;4982849;28;20050;-75
2021/08/10 11:43:52;;;;;;;12.57;11.80;;;22.70;99.90;;;;;;4985900;28;20600;-75
2021/08/10 11:46:33;;;;;;;13.63;12.52;;;22.90;99.90;;;;;;4986303;28;20042;-75
2021/08/10 11:49:00;;;;;;;13.02;12.15;;;23.20;99.90;;;;;;4986867;28;20496;-75
2021/08/10 11:51:27;;;;;;;12.02;11.15;;;23.60;99.90;;;;;;4985718;28;20051;-75
2021/08/10 11:53:58;;;;;;;12.20;11.32;;;23.30;99.90;;;;;;4986205;28;20058;-74
2021/08/10 11:56:28;;;;;;;12.30;11.50;;;23.30;99.90;;;;;;5006952;28;20053;-75
2021/08/10 11:58:57;;;;;;;11.73;10.82;;;22.80;99.90;;;;;;5026844;28;20048;-74
2021/08/10 12:01:24;;;;;;;11.70;10.80;;;22.20;99.90;;;;;;4998822;28;20096;-75
2021/08/10 12:03:53;;;;;;;11.52;10.63;;;21.70;99.90;;;;;;4970619;28;20552;-76
2021/08/10 12:06:27;;;;;;;10.80;10.02;;;21.40;99.90;;;;;;4987322;28;20051;-76
2021/08/10 12:08:55;;;;;;;10.82;10.02;;;21.30;99.90;;;;;;4985743;28;20047;-76
2021/08/10 12:11:26;;;;;;;10.90;10.13;;;21.30;99.90;;;;;;4985269;28;20050;-76
2021/08/10 12:14:10;;;;;;;10.70;9.90;;;21.40;99.90;;;;;;4985853;28;20058;-76
2021/08/10 12:16:37;;;;;;;10.83;9.83;;;21.40;99.90;;;;;;4985567;28;20172;-76
2021/08/10 12:19:04;;;;;;;10.77;9.90;;;21.60;99.90;;;;;;4985990;28;20328;-75
2021/08/10 12:21:42;;;;;;;11.73;10.93;;;21.70;99.90;;;;;;4984885;28;20444;-76
2021/08/10 12:24:27;;;;;;;11.63;10.88;;;21.50;99.90;;;;;;4984979;28;20050;-73
2021/08/10 12:26:54;;;;;;;12.10;11.20;;;21.20;99.90;;;;;;4995477;28;20042;-75
2021/08/10 12:29:21;;;;;;;12.02;11.13;;;21.00;99.90;;;;;;5003354;28;20069;-75
2021/08/10 12:31:47;;;;;;;11.43;10.52;;;20.90;99.90;;;;;;4993396;28;20053;-78
2021/08/10 12:34:14;;;;;;;11.98;10.98;;;20.90;99.90;;;;;;4969990;28;20109;-76
2021/08/10 12:36:51;;;;;;;11.20;10.30;;;20.90;99.90;;;;;;4985366;28;20046;-75
2021/08/10 12:39:20;;;;;;;11.70;10.80;;;20.80;99.90;;;;;;4967857;28;20312;-76
2021/08/10 12:41:47;;;;;;;12.30;11.18;;;20.90;99.90;;;;;;4984901;28;20101;-76
2021/08/10 12:44:15;;;;;;;10.82;10.13;;;21.00;99.90;;;;;;4990521;28;20486;-75
2021/08/10 12:46:43;;;;;;;12.10;11.20;;;21.20;99.90;;;;;;5003347;28;20100;-75
2021/08/10 12:49:12;;;;;;;11.82;10.93;;;21.30;99.90;;;;;;4988571;28;20057;-75
2021/08/10 12:51:54;;;;;;;11.93;11.02;;;21.50;99.90;;;;;;5004236;28;20498;-75
2021/08/10 12:54:21;;;;;;;11.77;10.77;;;21.60;99.90;;;;;;5004172;28;20450;-75
2021/08/10 12:56:49;;;;;;;11.65;10.75;;;21.70;99.90;;;;;;4988447;28;20116;-75
2021/08/10 12:59:16;;;;;;;11.98;11.10;;;21.50;99.90;;;;;;4985878;28;20053;-76
2021/08/10 13:01:45;;;;;;;13.13;12.23;;;21.40;99.90;;;;;;4994724;28;20280;-76
2021/08/10 13:04:13;;;;;;;11.60;10.60;;;21.50;99.90;;;;;;5004866;28;20033;-76
2021/08/10 13:06:40;;;;;;;12.15;11.35;;;21.50;99.90;;;;;;5004167;28;20111;-74
2021/08/10 13:09:07;;;;;;;12.50;11.60;;;21.60;99.90;;;;;;5009095;28;20058;-74
2021/08/10 13:11:35;;;;;;;12.75;11.75;;;21.90;99.90;;;;;;5011867;28;20078;-76